createdAt,value
2024-03-29T00:02:08.076Z,9.30
2024-03-29T00:04:46.002Z,8.40
2024-03-29T00:07:23.610Z,8.10
2024-03-29T00:10:02.192Z,7.80
2024-03-29T00:12:40.060Z,7.00
2024-03-29T00:15:17.576Z,9.00
2024-03-29T00:17:55.848Z,6.90
2024-03-29T00:20:25.460Z,6.40
2024-03-29T00:23:01.606Z,5.60
2024-03-29T00:25:39.422Z,5.30
2024-03-29T00:28:17.403Z,7.30
2024-03-29T00:30:54.870Z,5.80
2024-03-29T00:33:33.143Z,6.40
2024-03-29T00:36:13.113Z,5.20
2024-03-29T00:38:51.196Z,6.30
2024-03-29T00:41:28.993Z,4.30
2024-03-29T00:44:07.434Z,4.90
2024-03-29T00:46:45.735Z,6.10
2024-03-29T00:49:23.857Z,4.80
2024-03-29T00:52:01.403Z,6.10
2024-03-29T00:54:39.716Z,5.20
2024-03-29T00:57:18.108Z,8.20
2024-03-29T00:59:57.879Z,9.10
2024-03-29T01:02:35.632Z,6.00
2024-03-29T01:05:06.978Z,4.70
2024-03-29T01:07:43.228Z,7.50
2024-03-29T01:10:23.182Z,5.80
2024-03-29T01:13:00.389Z,5.90
2024-03-29T01:15:37.993Z,4.50
2024-03-29T01:18:15.544Z,6.00
2024-03-29T01:20:53.786Z,5.80
2024-03-29T01:23:31.247Z,5.10
2024-03-29T01:26:13.722Z,4.10
2024-03-29T01:28:51.341Z,3.30
2024-03-29T01:31:29.662Z,6.50
2024-03-29T01:34:07.780Z,3.00
2024-03-29T01:36:45.820Z,3.60
2024-03-29T01:39:34.249Z,4.20
2024-03-29T01:42:13.120Z,3.40
2024-03-29T01:44:51.253Z,4.00
2024-03-29T01:47:29.853Z,5.20
2024-03-29T01:50:08.382Z,4.10
2024-03-29T01:52:46.723Z,4.10
2024-03-29T01:55:24.471Z,3.80
2024-03-29T01:58:02.925Z,3.00
2024-03-29T02:00:51.455Z,3.10
2024-03-29T02:03:29.538Z,3.10
2024-03-29T02:06:07.966Z,3.30
2024-03-29T02:08:45.751Z,3.50
2024-03-29T02:11:23.694Z,3.90
2024-03-29T02:13:58.338Z,3.60
2024-03-29T02:16:28.393Z,3.20
2024-03-29T02:19:05.680Z,5.60
2024-03-29T02:21:49.299Z,3.70
2024-03-29T02:24:25.378Z,3.40
2024-03-29T02:27:05.889Z,6.70
2024-03-29T02:29:43.658Z,4.00
2024-03-29T02:32:22.001Z,3.10
2024-03-29T02:35:02.367Z,2.70
2024-03-29T02:37:42.522Z,4.70
2024-03-29T02:40:21.319Z,3.00
2024-03-29T02:42:59.254Z,3.90
2024-03-29T02:45:37.670Z,4.20
2024-03-29T02:48:16.087Z,3.60
2024-03-29T02:50:53.911Z,3.60
2024-03-29T02:53:31.913Z,3.30
2024-03-29T02:56:11.114Z,3.50
2024-03-29T02:58:48.939Z,3.60
2024-03-29T03:01:26.630Z,4.60
2024-03-29T03:04:05.626Z,3.20
2024-03-29T03:06:44.172Z,3.80
2024-03-29T03:09:40.934Z,3.20
2024-03-29T03:12:18.994Z,3.30
2024-03-29T03:14:56.567Z,6.50
2024-03-29T03:17:34.321Z,4.70
2024-03-29T03:20:14.809Z,3.60
2024-03-29T03:22:55.394Z,3.60
2024-03-29T03:25:32.968Z,3.30
2024-03-29T03:28:13.008Z,4.10
2024-03-29T03:30:50.640Z,3.70
2024-03-29T03:33:28.441Z,3.50
2024-03-29T03:36:06.388Z,8.20
2024-03-29T03:38:44.723Z,4.30
2024-03-29T03:41:22.493Z,4.10
2024-03-29T03:43:51.988Z,5.70
2024-03-29T03:46:27.986Z,3.40
2024-03-29T03:49:05.542Z,3.90
2024-03-29T03:51:43.531Z,2.90
2024-03-29T03:54:21.115Z,3.30
2024-03-29T03:56:58.607Z,3.60
2024-03-29T03:59:35.982Z,3.70
2024-03-29T04:02:14.190Z,3.70
2024-03-29T04:04:54.715Z,4.00
2024-03-29T04:07:31.762Z,3.80
2024-03-29T04:10:10.924Z,4.10
2024-03-29T04:12:48.906Z,4.50
2024-03-29T04:15:26.453Z,4.60
2024-03-29T04:18:05.084Z,4.20
2024-03-29T04:20:42.802Z,3.30
2024-03-29T04:23:12.528Z,4.00
2024-03-29T04:25:54.894Z,4.00
2024-03-29T04:28:29.074Z,3.50
2024-03-29T04:31:07.420Z,3.40
2024-03-29T04:33:44.624Z,3.00
2024-03-29T04:36:21.753Z,4.70
2024-03-29T04:38:58.649Z,3.30
2024-03-29T04:41:38.154Z,3.20
2024-03-29T04:44:25.588Z,3.80
2024-03-29T04:47:02.876Z,4.70
2024-03-29T04:49:40.492Z,3.10
2024-03-29T04:52:18.409Z,4.70
2024-03-29T04:54:56.080Z,3.00
2024-03-29T04:57:33.084Z,3.60
2024-03-29T05:00:11.938Z,3.30
2024-03-29T05:02:49.229Z,3.10
2024-03-29T05:05:26.199Z,4.10
2024-03-29T05:08:07.308Z,3.70
2024-03-29T05:10:47.875Z,2.90
2024-03-29T05:13:25.802Z,4.30
2024-03-29T05:16:03.603Z,4.10
2024-03-29T05:18:33.445Z,3.60
2024-03-29T05:21:10.623Z,3.40
2024-03-29T05:23:48.786Z,3.40
2024-03-29T05:26:25.761Z,4.40
2024-03-29T05:29:05.317Z,4.00
2024-03-29T05:31:44.350Z,3.40
2024-03-29T05:34:21.435Z,5.40
2024-03-29T05:36:59.035Z,3.90
2024-03-29T05:39:36.038Z,4.20
2024-03-29T05:42:13.677Z,4.30
2024-03-29T05:44:51.070Z,3.30
2024-03-29T05:47:28.451Z,3.60
2024-03-29T05:49:58.030Z,4.20
2024-03-29T05:52:31.558Z,5.00
2024-03-29T05:55:10.869Z,3.80
2024-03-29T05:57:49.558Z,3.40
2024-03-29T06:00:26.313Z,3.00
2024-03-29T06:03:06.025Z,4.00
2024-03-29T06:05:44.539Z,3.20
2024-03-29T06:08:22.523Z,5.30
2024-03-29T06:11:00.370Z,5.30
2024-03-29T06:13:53.936Z,4.30
2024-03-29T06:17:23.182Z,4.00
2024-03-29T06:20:03.209Z,3.50
2024-03-29T06:22:32.733Z,4.30
2024-03-29T06:25:10.580Z,3.80
2024-03-29T06:27:49.341Z,4.00
2024-03-29T06:30:25.906Z,3.70
2024-03-29T06:33:04.390Z,3.40
2024-03-29T06:35:40.875Z,4.70
2024-03-29T06:38:17.685Z,4.00
2024-03-29T06:40:55.113Z,3.80
2024-03-29T06:43:31.775Z,4.70
2024-03-29T06:46:09.121Z,5.00
2024-03-29T06:48:45.649Z,4.50
2024-03-29T06:51:15.429Z,3.20
2024-03-29T06:53:52.925Z,4.50
2024-03-29T06:56:31.124Z,4.20
2024-03-29T06:59:09.325Z,4.20
2024-03-29T07:01:48.763Z,4.00
2024-03-29T07:04:29.295Z,4.70
2024-03-29T07:07:05.933Z,2.90
2024-03-29T07:09:42.611Z,3.50
2024-03-29T07:12:19.715Z,5.10
2024-03-29T07:14:56.416Z,3.30
2024-03-29T07:17:33.742Z,4.30
2024-03-29T07:20:12.988Z,4.40
2024-03-29T07:22:50.177Z,3.60
2024-03-29T07:25:19.541Z,3.60
2024-03-29T07:27:54.308Z,4.20
2024-03-29T07:30:31.105Z,3.80
2024-03-29T07:33:10.845Z,2.70
2024-03-29T07:35:47.952Z,3.20
2024-03-29T07:38:26.322Z,4.40
2024-03-29T07:41:03.754Z,3.70
2024-03-29T07:44:09.521Z,2.40
2024-03-29T07:46:43.276Z,3.60
2024-03-29T07:49:26.593Z,3.10
2024-03-29T07:51:56.778Z,4.00
2024-03-29T07:54:34.116Z,3.00
2024-03-29T07:57:15.864Z,3.10
2024-03-29T07:59:55.132Z,4.30
2024-03-29T08:02:32.200Z,2.70
2024-03-29T08:05:09.929Z,2.70
2024-03-29T08:07:47.109Z,2.60
2024-03-29T08:10:23.912Z,3.00
2024-03-29T08:13:02.183Z,3.00
2024-03-29T08:15:39.641Z,3.20
2024-03-29T08:18:17.556Z,3.00
2024-03-29T08:20:56.359Z,2.40
2024-03-29T08:23:33.541Z,3.00
2024-03-29T08:26:11.585Z,2.00
2024-03-29T08:28:41.657Z,2.30
2024-03-29T08:31:16.741Z,2.10
2024-03-29T08:34:01.494Z,4.70
2024-03-29T08:36:36.844Z,2.80
2024-03-29T08:39:14.415Z,1.50
2024-03-29T08:41:52.275Z,1.60
2024-03-29T08:44:30.254Z,4.30
2024-03-29T08:47:08.386Z,9.30
2024-03-29T08:49:44.942Z,2.90
2024-03-29T08:52:23.575Z,3.10
2024-03-29T08:55:00.428Z,2.40
2024-03-29T08:57:37.909Z,2.30
2024-03-29T09:00:15.757Z,2.90
2024-03-29T09:02:53.223Z,3.00
2024-03-29T09:05:31.155Z,2.40
2024-03-29T09:08:00.681Z,3.20
2024-03-29T09:10:37.372Z,5.80
2024-03-29T09:13:14.702Z,3.00
2024-03-29T09:15:51.796Z,3.00
2024-03-29T09:18:29.660Z,2.80
2024-03-29T09:21:12.411Z,3.10
2024-03-29T09:23:54.219Z,4.40
2024-03-29T09:26:31.135Z,5.20
2024-03-29T09:29:09.302Z,2.10
2024-03-29T09:31:46.075Z,3.40
2024-03-29T09:34:24.591Z,3.60
2024-03-29T09:37:01.536Z,3.20
2024-03-29T09:39:39.488Z,4.00
2024-03-29T09:42:20.939Z,3.20
2024-03-29T09:44:59.718Z,3.40
2024-03-29T09:47:38.028Z,3.50
2024-03-29T09:50:15.998Z,2.50
2024-03-29T09:52:54.570Z,3.60
2024-03-29T09:55:32.511Z,2.60
2024-03-29T09:58:02.387Z,2.90
2024-03-29T10:00:38.796Z,2.00
2024-03-29T10:03:20.412Z,2.40
2024-03-29T10:05:58.435Z,5.20
2024-03-29T10:08:35.892Z,4.20
2024-03-29T10:11:13.260Z,2.60
2024-03-29T10:13:50.654Z,2.10
2024-03-29T10:16:27.708Z,4.50
2024-03-29T10:19:08.998Z,4.00
2024-03-29T10:21:45.627Z,4.50
2024-03-29T10:24:22.676Z,3.20
2024-03-29T10:26:59.411Z,3.60
2024-03-29T10:29:36.201Z,2.50
2024-03-29T10:32:06.292Z,5.40
2024-03-29T10:34:40.122Z,3.30
2024-03-29T10:37:28.466Z,2.80
2024-03-29T10:40:04.990Z,3.00
2024-03-29T10:42:42.081Z,3.10
2024-03-29T10:45:19.242Z,2.20
2024-03-29T10:47:55.890Z,3.60
2024-03-29T10:50:33.649Z,3.80
2024-03-29T10:53:12.488Z,3.60
2024-03-29T10:55:49.314Z,2.60
2024-03-29T10:58:32.970Z,5.30
2024-03-29T11:01:11.084Z,3.70
2024-03-29T11:04:04.344Z,2.00
2024-03-29T11:06:42.176Z,2.80
2024-03-29T11:09:21.420Z,4.70
2024-03-29T11:12:00.230Z,6.10
2024-03-29T11:15:00.300Z,1.90
2024-03-29T11:17:36.761Z,3.90
2024-03-29T11:20:17.547Z,2.10
2024-03-29T11:22:55.785Z,2.40
2024-03-29T11:25:47.086Z,2.50
2024-03-29T11:28:39.030Z,1.80
2024-03-29T11:31:15.701Z,2.30
2024-03-29T11:33:55.259Z,3.60
2024-03-29T11:36:37.521Z,2.60
2024-03-29T11:39:22.970Z,2.00
2024-03-29T11:42:02.697Z,2.00
2024-03-29T11:44:39.756Z,2.20
2024-03-29T11:47:19.735Z,3.10
2024-03-29T11:50:02.547Z,2.30
2024-03-29T11:52:39.835Z,2.30
2024-03-29T11:55:17.217Z,2.70
2024-03-29T11:57:54.398Z,1.80
2024-03-29T12:00:31.784Z,3.20
2024-03-29T12:03:09.867Z,3.00
2024-03-29T12:05:47.836Z,2.10
2024-03-29T12:08:25.507Z,2.60
2024-03-29T12:11:06.504Z,2.40
2024-03-29T12:13:43.610Z,3.10
2024-03-29T12:16:21.202Z,3.80
2024-03-29T12:18:58.617Z,2.40
2024-03-29T12:21:28.125Z,2.40
2024-03-29T12:24:03.725Z,1.50
2024-03-29T12:26:41.468Z,2.40
2024-03-29T12:29:19.337Z,3.30
2024-03-29T12:32:05.765Z,2.30
2024-03-29T12:34:42.825Z,3.20
2024-03-29T12:37:21.047Z,4.80
2024-03-29T12:39:59.001Z,2.90
2024-03-29T12:42:36.267Z,2.60
2024-03-29T12:45:13.778Z,2.80
2024-03-29T12:47:53.791Z,2.90
2024-03-29T12:50:37.292Z,5.90
2024-03-29T12:53:18.804Z,1.30
2024-03-29T12:55:55.822Z,3.10
2024-03-29T12:58:32.286Z,2.30
2024-03-29T13:01:11.185Z,1.90
2024-03-29T13:03:47.895Z,3.60
2024-03-29T13:06:24.372Z,3.10
2024-03-29T13:09:00.981Z,2.60
2024-03-29T13:11:31.798Z,3.00
2024-03-29T13:14:06.522Z,4.20
2024-03-29T13:16:44.016Z,4.30
2024-03-29T13:19:21.044Z,1.30
2024-03-29T13:22:00.210Z,2.70
2024-03-29T13:24:38.000Z,3.80
2024-03-29T13:27:15.259Z,2.30
2024-03-29T13:29:54.060Z,1.70
2024-03-29T13:32:33.814Z,4.30
2024-03-29T13:35:13.473Z,2.40
2024-03-29T13:37:50.813Z,2.30
2024-03-29T13:40:28.299Z,3.00
2024-03-29T13:43:06.005Z,2.70
2024-03-29T13:45:42.874Z,1.40
2024-03-29T13:48:20.021Z,1.80
2024-03-29T13:50:51.622Z,3.10
2024-03-29T13:53:26.043Z,1.80
2024-03-29T13:56:04.615Z,2.40
2024-03-29T13:58:41.195Z,2.10
2024-03-29T14:01:17.958Z,1.50
2024-03-29T14:03:55.532Z,2.60
2024-03-29T14:06:32.064Z,2.30
2024-03-29T14:09:09.716Z,1.60
2024-03-29T14:11:48.090Z,2.60
2024-03-29T14:14:24.039Z,2.40
2024-03-29T14:17:05.495Z,3.50
2024-03-29T14:19:42.935Z,3.00
2024-03-29T14:22:24.499Z,1.90
2024-03-29T14:25:01.663Z,3.20
2024-03-29T14:27:32.319Z,3.30
2024-03-29T14:30:07.150Z,2.10
2024-03-29T14:32:57.809Z,5.10
2024-03-29T14:35:43.113Z,2.50
2024-03-29T14:38:21.804Z,3.20
2024-03-29T14:40:59.415Z,4.30
2024-03-29T14:43:29.307Z,2.20
2024-03-29T14:46:06.232Z,4.10
2024-03-29T14:48:44.765Z,2.40
2024-03-29T14:51:22.798Z,2.10
2024-03-29T14:53:59.340Z,2.00
2024-03-29T14:56:36.246Z,2.80
2024-03-29T14:59:13.884Z,1.90
2024-03-29T15:01:51.731Z,1.40
2024-03-29T15:04:28.998Z,1.90
2024-03-29T15:07:07.561Z,1.60
2024-03-29T15:09:44.811Z,9.50
2024-03-29T15:12:22.002Z,0.80
2024-03-29T15:14:51.832Z,1.90
2024-03-29T15:17:28.331Z,2.30
2024-03-29T15:20:06.696Z,1.90
2024-03-29T15:22:46.940Z,1.50
2024-03-29T15:25:23.722Z,1.40
2024-03-29T15:28:11.716Z,1.90
2024-03-29T15:30:58.850Z,1.40
2024-03-29T15:33:29.163Z,2.10
2024-03-29T15:36:06.502Z,2.20
2024-03-29T15:38:44.642Z,3.70
2024-03-29T15:41:21.971Z,2.50
2024-03-29T15:43:59.933Z,2.10
2024-03-29T15:46:38.089Z,1.80
2024-03-29T15:49:15.110Z,2.80
2024-03-29T15:51:51.658Z,1.80
2024-03-29T15:54:28.756Z,2.10
2024-03-29T15:57:05.916Z,1.60
2024-03-29T15:59:45.592Z,2.30
2024-03-29T16:02:23.094Z,4.90
2024-03-29T16:04:54.697Z,2.40
2024-03-29T16:07:29.926Z,1.90
2024-03-29T16:10:07.691Z,2.60
2024-03-29T16:12:45.255Z,3.00
2024-03-29T16:15:22.653Z,2.90
2024-03-29T16:17:59.726Z,4.50
2024-03-29T16:20:37.013Z,1.60
2024-03-29T16:23:15.999Z,5.10
2024-03-29T16:25:59.303Z,2.60
2024-03-29T16:28:36.612Z,3.10
2024-03-29T16:31:14.187Z,1.40
2024-03-29T16:33:51.327Z,3.00
2024-03-29T16:36:28.318Z,5.60
2024-03-29T16:39:05.694Z,1.20
2024-03-29T16:41:47.481Z,2.70
2024-03-29T16:44:26.292Z,2.20
2024-03-29T16:47:04.177Z,2.50
2024-03-29T16:49:33.952Z,4.10
2024-03-29T16:52:11.288Z,4.70
2024-03-29T16:54:48.492Z,2.20
2024-03-29T16:57:25.910Z,3.10
2024-03-29T17:00:04.318Z,9.50
2024-03-29T17:02:41.432Z,3.30
2024-03-29T17:05:18.964Z,4.10
2024-03-29T17:07:56.404Z,3.40
2024-03-29T17:10:34.365Z,4.10
2024-03-29T17:13:12.811Z,2.70
2024-03-29T17:15:54.076Z,4.40
2024-03-29T17:18:31.109Z,3.40
2024-03-29T17:21:10.401Z,4.10
2024-03-29T17:23:48.668Z,3.00
2024-03-29T17:26:27.384Z,4.30
2024-03-29T17:29:06.485Z,4.00
2024-03-29T17:31:57.328Z,3.10
2024-03-29T17:34:43.051Z,3.00
2024-03-29T17:37:20.531Z,3.80
2024-03-29T17:39:57.416Z,4.10
2024-03-29T17:42:34.557Z,3.10
2024-03-29T17:45:13.104Z,4.20
2024-03-29T17:47:50.952Z,4.80
2024-03-29T17:50:29.778Z,5.00
2024-03-29T17:53:09.392Z,4.50
2024-03-29T17:55:40.389Z,3.60
2024-03-29T17:58:14.067Z,9.70
2024-03-29T18:00:53.580Z,7.00
2024-03-29T18:03:32.199Z,6.20
2024-03-29T18:06:11.304Z,4.30
2024-03-29T18:08:49.952Z,4.50
2024-03-29T18:11:28.892Z,5.30
2024-03-29T18:14:09.446Z,3.50
2024-03-29T18:19:23.812Z,5.90
2024-03-29T18:22:02.637Z,6.10
2024-03-29T18:24:40.247Z,3.80
2024-03-29T18:27:16.580Z,8.00
2024-03-29T18:29:54.628Z,5.70
2024-03-29T18:32:32.814Z,5.30
2024-03-29T18:35:13.457Z,5.80
2024-03-29T18:37:51.759Z,3.70
2024-03-29T18:40:29.402Z,5.40
2024-03-29T18:43:08.965Z,4.40
2024-03-29T18:45:48.708Z,5.20
2024-03-29T18:48:19.072Z,5.40
2024-03-29T18:50:56.920Z,6.00
2024-03-29T18:53:37.263Z,5.60
2024-03-29T18:58:52.579Z,4.90
2024-03-29T19:01:33.943Z,6.50
2024-03-29T19:04:12.758Z,6.50
2024-03-29T19:06:52.592Z,6.50
2024-03-29T19:09:30.712Z,6.00
2024-03-29T19:12:09.293Z,7.00
2024-03-29T19:14:47.844Z,5.60
2024-03-29T19:17:25.799Z,7.60
2024-03-29T19:20:04.476Z,8.10
2024-03-29T19:22:42.540Z,5.80
2024-03-29T19:25:21.928Z,10.70
2024-03-29T19:28:00.672Z,6.70
2024-03-29T19:30:38.642Z,8.20
2024-03-29T19:33:17.102Z,7.80
2024-03-29T19:35:55.106Z,6.50
2024-03-29T19:38:33.073Z,9.60
2024-03-29T19:41:12.851Z,12.90
2024-03-29T19:43:50.982Z,10.10
2024-03-29T19:46:20.963Z,5.60
2024-03-29T19:48:57.114Z,8.50
2024-03-29T19:51:35.894Z,11.80
2024-03-29T19:54:14.254Z,12.40
2024-03-29T19:56:52.608Z,8.60
2024-03-29T19:59:31.232Z,9.40
2024-03-29T20:02:10.571Z,11.20
2024-03-29T20:04:49.107Z,8.40
2024-03-29T20:07:27.674Z,12.20
2024-03-29T20:10:05.292Z,8.70
2024-03-29T20:12:43.089Z,8.20
2024-03-29T20:15:20.887Z,11.10
2024-03-29T20:17:59.343Z,9.30
2024-03-29T20:20:37.016Z,9.30
2024-03-29T20:23:15.711Z,7.10
2024-03-29T20:25:53.586Z,8.60
2024-03-29T20:28:31.490Z,8.60
2024-03-29T20:31:06.849Z,9.70
2024-03-29T20:33:38.358Z,12.40
2024-03-29T20:36:15.883Z,9.70
2024-03-29T20:38:57.672Z,5.70
2024-03-29T20:41:35.543Z,7.80
2024-03-29T20:44:14.227Z,10.10
2024-03-29T20:46:51.929Z,7.70
2024-03-29T20:49:29.349Z,8.50
2024-03-29T20:52:08.244Z,8.50
2024-03-29T20:54:46.163Z,8.30
2024-03-29T20:57:24.564Z,8.70
2024-03-29T21:00:02.853Z,9.60
2024-03-29T21:02:58.750Z,9.30
2024-03-29T21:05:41.397Z,9.20
2024-03-29T21:08:19.235Z,9.20
2024-03-29T21:10:57.210Z,8.30
2024-03-29T21:13:35.169Z,10.70
2024-03-29T21:16:13.911Z,8.30
2024-03-29T21:18:51.549Z,8.10
2024-03-29T21:21:31.877Z,12.50
2024-03-29T21:24:10.295Z,9.90
2024-03-29T21:26:47.626Z,8.30
2024-03-29T21:29:25.246Z,7.50
2024-03-29T21:32:02.761Z,11.50
2024-03-29T21:34:40.390Z,7.90
2024-03-29T21:37:18.504Z,8.10
2024-03-29T21:39:56.350Z,9.20
2024-03-29T21:42:33.841Z,7.50
2024-03-29T21:45:04.164Z,8.00
2024-03-29T21:47:40.204Z,10.60
2024-03-29T21:50:18.700Z,10.20
2024-03-29T21:52:58.723Z,8.10
2024-03-29T21:55:36.925Z,7.50
2024-03-29T21:58:14.562Z,9.30
2024-03-29T22:00:52.536Z,9.10
2024-03-29T22:03:30.125Z,9.10
2024-03-29T22:06:07.982Z,10.70
2024-03-29T22:08:45.731Z,10.10
2024-03-29T22:11:23.198Z,9.20
2024-03-29T22:14:01.213Z,7.60
2024-03-29T22:16:38.620Z,7.60
2024-03-29T22:19:08.980Z,8.80
2024-03-29T22:21:41.464Z,8.40
2024-03-29T22:24:18.975Z,9.60
2024-03-29T22:26:56.668Z,10.70
2024-03-29T22:29:34.938Z,10.60
2024-03-29T22:32:10.034Z,10.80
2024-03-29T22:34:47.905Z,7.90
2024-03-29T22:37:25.346Z,10.30
2024-03-29T22:40:03.571Z,8.10
2024-03-29T22:42:41.023Z,10.10
2024-03-29T22:45:18.794Z,6.90
2024-03-29T22:47:57.616Z,6.90
2024-03-29T22:50:35.256Z,13.40
2024-03-29T22:53:08.295Z,8.90
2024-03-29T22:55:42.703Z,9.70
2024-03-29T22:58:20.821Z,10.30
2024-03-29T23:00:59.360Z,9.90
2024-03-29T23:03:37.762Z,5.60
2024-03-29T23:06:16.647Z,12.40
2024-03-29T23:08:54.434Z,10.60
2024-03-29T23:11:31.962Z,8.90
2024-03-29T23:14:11.016Z,8.90
2024-03-29T23:16:49.166Z,9.30
2024-03-29T23:19:26.721Z,8.00
2024-03-29T23:22:04.912Z,10.10
2024-03-29T23:24:42.271Z,10.00
2024-03-29T23:27:20.099Z,12.80
2024-03-29T23:29:59.428Z,9.90
2024-03-29T23:32:37.680Z,10.30
2024-03-29T23:35:16.624Z,8.40
2024-03-29T23:37:54.937Z,6.90
2024-03-29T23:40:32.622Z,7.20
2024-03-29T23:43:11.396Z,8.20
2024-03-29T23:45:48.824Z,7.70
2024-03-29T23:48:26.414Z,12.50
2024-03-29T23:51:04.694Z,9.70
2024-03-29T23:53:42.446Z,7.80
2024-03-29T23:56:21.242Z,8.80
2024-03-29T23:59:06.794Z,7.00
